Time;durP1;ratioP1;P1;durP2;ratioP2;P2;SDS_P1;SDS_P2;PMS_P1;PMS_P2;Temp;Humidity;BMP_temperature;BMP_pressure;BME280_temperature;BME280_humidity;BME280_pressure;Samples;Min_cycle;Max_cycle;Signal;HPM_P1;HPM_P2
2023/09/30 00:01:18;;;;;;;16.08;4.00;;;12.30;99.90;;;;;;5113391;28;20107;-49
2023/09/30 00:03:45;;;;;;;12.38;4.03;;;12.30;99.90;;;;;;5113078;28;20398;-49
2023/09/30 00:06:10;;;;;;;10.55;3.35;;;12.30;99.90;;;;;;5113138;28;20483;-50
2023/09/30 00:08:39;;;;;;;10.65;3.38;;;12.30;99.90;;;;;;5112858;28;20130;-50
2023/09/30 00:11:05;;;;;;;10.20;3.63;;;12.30;99.90;;;;;;5112976;28;20060;-49
2023/09/30 00:13:31;;;;;;;10.15;2.80;;;12.30;99.90;;;;;;5113017;28;20128;-50
2023/09/30 00:15:57;;;;;;;13.50;3.60;;;12.20;99.90;;;;;;5112610;28;20499;-50
2023/09/30 00:18:23;;;;;;;12.13;3.42;;;12.20;99.90;;;;;;5112664;28;20442;-52
2023/09/30 00:20:49;;;;;;;10.20;3.20;;;12.20;99.90;;;;;;5112476;28;20120;-49
2023/09/30 00:23:14;;;;;;;11.50;3.38;;;12.20;99.90;;;;;;5112556;28;20388;-49
2023/09/30 00:25:40;;;;;;;13.43;3.40;;;12.30;99.90;;;;;;5112524;28;20036;-52
2023/09/30 00:28:06;;;;;;;17.45;4.03;;;12.30;99.90;;;;;;5112661;28;20077;-47
2023/09/30 00:30:31;;;;;;;13.63;3.70;;;12.20;99.90;;;;;;5112474;28;20036;-47
2023/09/30 00:32:58;;;;;;;14.15;3.83;;;12.20;99.90;;;;;;5112398;28;20024;-48
2023/09/30 00:35:24;;;;;;;11.82;3.67;;;12.20;99.90;;;;;;5094088;28;20071;-50
2023/09/30 00:37:50;;;;;;;9.68;2.92;;;12.20;99.90;;;;;;5094002;28;20078;-50
2023/09/30 00:40:16;;;;;;;11.88;3.30;;;12.20;99.90;;;;;;5093996;28;20031;-48
2023/09/30 00:42:42;;;;;;;13.60;4.55;;;12.10;99.90;;;;;;5112404;28;20142;-49
2023/09/30 00:45:09;;;;;;;10.18;3.38;;;12.20;99.90;;;;;;5111734;28;20154;-49
2023/09/30 00:47:36;;;;;;;13.85;4.20;;;12.20;99.90;;;;;;5112198;28;20031;-48
2023/09/30 00:50:04;;;;;;;12.95;3.78;;;12.10;99.90;;;;;;5112485;28;20036;-48
2023/09/30 00:52:33;;;;;;;11.20;3.35;;;12.20;99.90;;;;;;5112419;28;20496;-50
2023/09/30 00:54:59;;;;;;;11.45;3.92;;;12.20;99.90;;;;;;5112186;28;20451;-51
2023/09/30 00:57:25;;;;;;;12.82;3.88;;;12.20;99.90;;;;;;5112081;28;20040;-46
2023/09/30 00:59:52;;;;;;;12.13;3.70;;;12.20;99.90;;;;;;5112212;28;20152;-50
2023/09/30 01:02:22;;;;;;;9.00;3.50;;;12.30;99.90;;;;;;5111788;28;20039;-50
2023/09/30 01:04:48;;;;;;;11.43;4.10;;;12.20;99.90;;;;;;5112002;28;20394;-48
2023/09/30 01:07:14;;;;;;;12.85;3.58;;;12.20;99.90;;;;;;5112097;28;20035;-50
2023/09/30 01:09:40;;;;;;;8.07;3.47;;;12.20;99.90;;;;;;5093713;28;20397;-50
2023/09/30 01:12:07;;;;;;;14.15;3.95;;;12.20;99.90;;;;;;5111618;28;20120;-51
2023/09/30 01:14:42;;;;;;;14.52;4.35;;;12.10;99.90;;;;;;5111762;28;20043;-48
2023/09/30 01:17:13;;;;;;;10.82;3.90;;;12.10;99.90;;;;;;5110044;28;20092;-48
2023/09/30 01:19:39;;;;;;;14.70;4.03;;;12.10;99.90;;;;;;5111879;28;20059;-50
2023/09/30 01:22:05;;;;;;;16.08;4.25;;;12.20;99.90;;;;;;5112044;28;20118;-48
2023/09/30 01:24:38;;;;;;;13.52;3.55;;;12.10;99.90;;;;;;5111673;28;20454;-50
2023/09/30 01:27:03;;;;;;;10.38;4.40;;;12.10;99.90;;;;;;5112126;28;20097;-49
2023/09/30 01:29:29;;;;;;;15.63;3.95;;;12.20;99.90;;;;;;5111790;28;20039;-46
2023/09/30 01:31:55;;;;;;;11.00;3.88;;;12.20;99.90;;;;;;5111792;28;20040;-49
2023/09/30 01:34:21;;;;;;;11.52;3.92;;;12.20;99.90;;;;;;5093356;28;20054;-48
2023/09/30 01:36:46;;;;;;;12.48;4.55;;;12.20;99.90;;;;;;5111591;28;20097;-47
2023/09/30 01:39:13;;;;;;;9.32;3.22;;;12.30;99.90;;;;;;5111660;28;20036;-50
2023/09/30 01:41:40;;;;;;;15.43;4.13;;;12.20;99.90;;;;;;5093710;28;20067;-47
2023/09/30 01:44:06;;;;;;;12.77;3.75;;;12.20;99.90;;;;;;5093560;28;20435;-48
2023/09/30 01:46:32;;;;;;;12.45;3.55;;;12.20;99.90;;;;;;5111566;28;20473;-50
2023/09/30 01:48:57;;;;;;;14.50;4.40;;;12.30;99.90;;;;;;5111369;28;20042;-48
2023/09/30 01:51:23;;;;;;;7.18;3.47;;;12.30;99.90;;;;;;5111450;28;20074;-49
2023/09/30 01:53:49;;;;;;;7.60;3.20;;;12.30;99.90;;;;;;5093683;28;20036;-50
2023/09/30 01:56:15;;;;;;;14.55;3.83;;;12.30;99.90;;;;;;5113169;28;20509;-52
2023/09/30 01:58:40;;;;;;;10.13;3.63;;;12.30;99.90;;;;;;5115273;28;20045;-49
2023/09/30 02:01:06;;;;;;;12.18;3.50;;;12.20;99.90;;;;;;5115242;28;20118;-49
2023/09/30 02:03:32;;;;;;;10.57;3.05;;;12.30;99.90;;;;;;5115371;28;20032;-48
2023/09/30 02:05:58;;;;;;;15.55;3.95;;;12.30;99.90;;;;;;5115327;28;20044;-47
2023/09/30 02:08:24;;;;;;;10.15;3.25;;;12.30;99.90;;;;;;5115097;28;20028;-49
2023/09/30 02:10:51;;;;;;;13.18;3.45;;;12.30;99.90;;;;;;5096837;28;20130;-49
2023/09/30 02:13:17;;;;;;;10.80;3.83;;;12.20;99.90;;;;;;5115086;28;20043;-48
2023/09/30 02:15:43;;;;;;;12.57;3.58;;;12.20;99.90;;;;;;5096854;28;20054;-50
2023/09/30 02:18:09;;;;;;;10.15;3.35;;;12.20;99.90;;;;;;5115318;28;20628;-50
2023/09/30 02:20:39;;;;;;;14.73;3.45;;;12.20;99.90;;;;;;5096844;28;20484;-50
2023/09/30 02:23:12;;;;;;;10.68;3.40;;;12.20;99.90;;;;;;5114973;28;20035;-47
2023/09/30 02:25:38;;;;;;;12.63;3.42;;;12.20;99.90;;;;;;5114968;28;20028;-50
2023/09/30 02:28:06;;;;;;;8.00;3.20;;;12.20;99.90;;;;;;5114702;28;20035;-48
2023/09/30 02:30:32;;;;;;;11.57;4.13;;;12.20;99.90;;;;;;5095945;28;20122;-47
2023/09/30 02:32:57;;;;;;;19.23;4.30;;;12.20;99.90;;;;;;5114917;28;20123;-49
2023/09/30 02:35:24;;;;;;;10.77;3.90;;;12.20;99.90;;;;;;5114580;28;20443;-47
2023/09/30 02:37:51;;;;;;;12.63;3.25;;;12.20;99.90;;;;;;5114669;28;20119;-48
2023/09/30 02:40:17;;;;;;;13.43;3.72;;;12.30;99.90;;;;;;5114774;28;20485;-47
2023/09/30 02:42:43;;;;;;;12.52;3.47;;;12.20;99.90;;;;;;5095756;28;20040;-48
2023/09/30 02:45:10;;;;;;;13.35;3.65;;;12.20;99.90;;;;;;5096281;28;20122;-49
2023/09/30 02:47:37;;;;;;;7.93;2.88;;;12.30;99.90;;;;;;5114340;28;20490;-48
2023/09/30 02:50:04;;;;;;;12.55;3.50;;;12.30;99.90;;;;;;5114538;28;20042;-49
2023/09/30 02:52:30;;;;;;;8.07;3.38;;;12.30;99.90;;;;;;5114390;28;20096;-47
2023/09/30 02:54:57;;;;;;;13.07;3.70;;;12.30;99.90;;;;;;5114337;28;20040;-47
2023/09/30 02:57:23;;;;;;;10.48;3.88;;;12.30;99.90;;;;;;5114203;28;20119;-48
2023/09/30 02:59:49;;;;;;;13.48;3.70;;;12.30;99.90;;;;;;5114274;28;20469;-48
2023/09/30 03:02:15;;;;;;;9.13;3.45;;;12.30;99.90;;;;;;5114597;28;20042;-48
2023/09/30 03:04:42;;;;;;;12.85;4.18;;;12.40;99.90;;;;;;5114162;28;20374;-48
2023/09/30 03:07:08;;;;;;;16.30;3.53;;;12.40;99.90;;;;;;5113906;28;20043;-49
2023/09/30 03:09:35;;;;;;;11.18;3.75;;;12.40;99.90;;;;;;5095472;28;20047;-48
2023/09/30 03:12:02;;;;;;;11.90;3.65;;;12.40;99.90;;;;;;5095524;28;20060;-50
2023/09/30 03:14:30;;;;;;;12.38;3.45;;;12.40;99.90;;;;;;5113823;28;20031;-48
2023/09/30 03:16:57;;;;;;;14.23;3.67;;;12.40;99.90;;;;;;5114358;28;20147;-48
2023/09/30 03:19:22;;;;;;;9.40;3.00;;;12.40;99.90;;;;;;5113942;28;20106;-46
2023/09/30 03:21:48;;;;;;;9.27;3.13;;;12.40;99.90;;;;;;5095418;28;20114;-46
2023/09/30 03:24:14;;;;;;;19.42;4.18;;;12.40;99.90;;;;;;5113699;28;20027;-48
2023/09/30 03:26:41;;;;;;;9.55;2.85;;;12.30;99.90;;;;;;5113603;28;20057;-47
2023/09/30 03:29:08;;;;;;;14.43;3.80;;;12.30;99.90;;;;;;5113716;28;20088;-51
2023/09/30 03:31:35;;;;;;;10.68;3.40;;;12.30;99.90;;;;;;5113655;28;20043;-48
2023/09/30 03:34:02;;;;;;;8.25;3.30;;;12.30;99.90;;;;;;5113684;28;20058;-47
2023/09/30 03:36:28;;;;;;;8.90;2.65;;;12.30;99.90;;;;;;5113326;28;20046;-48
2023/09/30 03:38:58;;;;;;;11.55;3.75;;;12.30;99.90;;;;;;5113432;28;20165;-49
2023/09/30 03:41:24;;;;;;;11.35;3.83;;;12.30;99.90;;;;;;5113613;28;20374;-48
2023/09/30 03:43:50;;;;;;;13.63;3.67;;;12.30;99.90;;;;;;5113307;28;20036;-53
2023/09/30 03:46:16;;;;;;;18.25;3.70;;;12.30;99.90;;;;;;5113268;28;20031;-51
2023/09/30 03:48:44;;;;;;;13.85;3.58;;;12.30;99.90;;;;;;5112972;28;20104;-49
2023/09/30 03:51:13;;;;;;;12.35;3.38;;;12.30;99.90;;;;;;5113185;28;20049;-48
2023/09/30 03:53:44;;;;;;;13.82;4.22;;;12.40;99.90;;;;;;5112996;28;20532;-52
2023/09/30 03:56:13;;;;;;;13.50;3.63;;;12.30;99.90;;;;;;5113272;28;20548;-50
2023/09/30 03:58:40;;;;;;;11.93;3.53;;;12.30;99.90;;;;;;5113009;28;20047;-50
2023/09/30 04:01:06;;;;;;;12.02;3.47;;;12.30;99.90;;;;;;5112993;28;20477;-49
2023/09/30 04:03:34;;;;;;;9.35;3.08;;;12.30;99.90;;;;;;5094623;28;20032;-47
2023/09/30 04:06:02;;;;;;;11.82;3.50;;;12.30;99.90;;;;;;5112918;28;20043;-49
2023/09/30 04:08:28;;;;;;;10.52;4.28;;;12.30;99.90;;;;;;5112850;28;20096;-47
2023/09/30 04:10:54;;;;;;;15.38;3.70;;;12.20;99.90;;;;;;5102583;28;20102;-49
2023/09/30 04:13:21;;;;;;;10.57;3.50;;;12.30;99.90;;;;;;5092461;28;20052;-50
2023/09/30 04:15:47;;;;;;;13.90;3.78;;;12.20;99.90;;;;;;5092328;28;20040;-48
2023/09/30 04:18:12;;;;;;;10.38;3.72;;;12.20;99.90;;;;;;5073583;28;20048;-48
2023/09/30 04:20:39;;;;;;;9.80;3.17;;;12.10;99.90;;;;;;5092370;28;20051;-49
2023/09/30 04:23:06;;;;;;;13.00;3.33;;;12.20;99.90;;;;;;5092663;28;20103;-49
2023/09/30 04:25:32;;;;;;;8.25;3.05;;;12.20;99.90;;;;;;5092652;28;20064;-50
2023/09/30 04:27:58;;;;;;;10.50;3.53;;;12.20;99.90;;;;;;5092272;28;20465;-47
2023/09/30 04:30:24;;;;;;;9.60;2.88;;;12.20;99.90;;;;;;5073768;28;20040;-49
2023/09/30 04:32:49;;;;;;;10.95;4.07;;;12.20;99.90;;;;;;5092152;28;20039;-48
2023/09/30 04:35:15;;;;;;;10.68;3.78;;;12.20;99.90;;;;;;5091931;28;20393;-47
2023/09/30 04:37:41;;;;;;;9.57;3.40;;;12.20;99.90;;;;;;5092152;28;20126;-51
2023/09/30 04:40:15;;;;;;;10.52;3.70;;;12.20;99.90;;;;;;5073965;28;20446;-48
2023/09/30 04:42:44;;;;;;;13.93;4.30;;;12.20;99.90;;;;;;5092312;28;20460;-48
2023/09/30 04:45:10;;;;;;;12.07;4.65;;;12.20;99.90;;;;;;5092153;28;20174;-48
2023/09/30 04:47:37;;;;;;;10.43;3.55;;;12.20;99.90;;;;;;5091970;28;20163;-49
2023/09/30 04:50:07;;;;;;;11.55;3.58;;;12.20;99.90;;;;;;5092153;28;20503;-47
2023/09/30 04:52:33;;;;;;;9.13;3.45;;;12.20;99.90;;;;;;5091839;28;20379;-50
2023/09/30 04:54:59;;;;;;;12.40;4.35;;;12.20;99.90;;;;;;5073681;28;20044;-49
2023/09/30 04:57:26;;;;;;;12.98;4.47;;;12.20;99.90;;;;;;5091639;28;20058;-47
2023/09/30 04:59:51;;;;;;;14.30;3.92;;;12.20;99.90;;;;;;5073828;28;20097;-48
2023/09/30 05:02:17;;;;;;;13.07;4.10;;;12.10;99.90;;;;;;5073993;28;20040;-49
2023/09/30 05:04:43;;;;;;;19.05;5.15;;;12.10;99.90;;;;;;5091816;28;20036;-47
2023/09/30 05:07:09;;;;;;;17.15;4.72;;;12.10;99.90;;;;;;5091900;28;20058;-48
2023/09/30 05:09:34;;;;;;;13.02;4.30;;;12.10;99.90;;;;;;5091651;28;20486;-48
2023/09/30 05:12:00;;;;;;;11.43;4.82;;;12.10;99.90;;;;;;5091334;28;20052;-47
2023/09/30 05:14:28;;;;;;;11.65;4.13;;;12.10;99.90;;;;;;5091366;28;20036;-49
2023/09/30 05:16:54;;;;;;;10.48;4.63;;;12.10;99.90;;;;;;5091501;28;20150;-46
2023/09/30 05:19:20;;;;;;;11.55;4.55;;;12.10;99.90;;;;;;5091724;28;20127;-47
2023/09/30 05:21:47;;;;;;;16.27;5.22;;;12.10;99.90;;;;;;5091542;28;20036;-49
2023/09/30 05:24:12;;;;;;;16.00;5.13;;;12.00;99.90;;;;;;5091409;28;20481;-48
2023/09/30 05:26:38;;;;;;;13.93;5.35;;;12.00;99.90;;;;;;5091517;28;20088;-50
2023/09/30 05:29:04;;;;;;;14.30;5.15;;;12.00;99.90;;;;;;5073166;28;20488;-51
2023/09/30 05:31:30;;;;;;;14.57;5.50;;;12.10;99.90;;;;;;5095272;28;20054;-50
2023/09/30 05:33:56;;;;;;;17.20;6.47;;;12.00;99.90;;;;;;5095244;28;20115;-49
2023/09/30 05:36:22;;;;;;;13.45;5.10;;;12.00;99.90;;;;;;5095587;28;20086;-48
2023/09/30 05:38:48;;;;;;;14.18;4.97;;;12.00;99.90;;;;;;5077124;28;20098;-47
2023/09/30 05:41:17;;;;;;;19.17;6.93;;;12.00;99.90;;;;;;5095233;28;20047;-49
2023/09/30 05:43:43;;;;;;;13.85;5.90;;;12.00;99.90;;;;;;5095309;28;20043;-49
2023/09/30 05:46:09;;;;;;;13.40;6.05;;;12.00;99.90;;;;;;5095471;28;20040;-49
2023/09/30 05:48:34;;;;;;;15.55;6.32;;;12.00;99.90;;;;;;5095256;28;20036;-47
2023/09/30 05:51:01;;;;;;;16.02;6.40;;;12.00;99.90;;;;;;5095370;28;20036;-48
2023/09/30 05:53:27;;;;;;;18.95;5.93;;;12.10;99.90;;;;;;5095147;28;20072;-48
2023/09/30 05:55:53;;;;;;;13.15;6.13;;;12.00;99.90;;;;;;5095021;28;20396;-46
2023/09/30 05:58:19;;;;;;;21.30;6.53;;;12.10;99.90;;;;;;5094930;28;20142;-50
2023/09/30 06:00:45;;;;;;;15.20;6.55;;;12.00;99.90;;;;;;5095220;28;20155;-48
2023/09/30 06:03:11;;;;;;;14.32;7.13;;;12.00;99.90;;;;;;5076790;28;20040;-49
2023/09/30 06:05:40;;;;;;;15.82;6.70;;;12.00;99.90;;;;;;5095148;28;20484;-48
2023/09/30 06:08:10;;;;;;;16.13;6.28;;;12.10;99.90;;;;;;5076995;28;20145;-47
2023/09/30 06:10:38;;;;;;;19.50;7.65;;;12.00;99.90;;;;;;5094688;28;20093;-48
2023/09/30 06:13:05;;;;;;;14.70;7.07;;;12.00;99.90;;;;;;5094778;28;20365;-50
2023/09/30 06:15:31;;;;;;;12.25;6.43;;;12.10;99.90;;;;;;5094685;28;20032;-48
2023/09/30 06:17:57;;;;;;;21.55;7.10;;;12.00;99.90;;;;;;5094740;28;20045;-51
2023/09/30 06:20:26;;;;;;;24.58;7.93;;;12.00;99.90;;;;;;5094487;28;20085;-52
2023/09/30 06:22:53;;;;;;;16.77;7.00;;;12.00;99.90;;;;;;5076418;28;20047;-48
2023/09/30 06:25:20;;;;;;;20.75;7.38;;;12.10;99.90;;;;;;5094318;28;20409;-50
2023/09/30 06:27:47;;;;;;;14.73;7.80;;;12.10;99.90;;;;;;5094487;28;20040;-49
2023/09/30 06:30:15;;;;;;;18.98;7.07;;;12.20;99.90;;;;;;5094451;28;20044;-50
2023/09/30 06:32:42;;;;;;;21.45;8.85;;;12.20;99.90;;;;;;5094518;28;20036;-48
2023/09/30 06:35:10;;;;;;;19.40;7.07;;;12.30;99.90;;;;;;5076265;28;20036;-48
2023/09/30 06:37:45;;;;;;;12.88;6.45;;;12.30;99.90;;;;;;5094264;28;20082;-52
2023/09/30 06:40:14;;;;;;;17.77;7.40;;;12.30;99.90;;;;;;5094597;28;20482;-50
2023/09/30 06:42:40;;;;;;;17.02;7.47;;;12.40;99.90;;;;;;5093458;28;20028;-49
2023/09/30 06:45:06;;;;;;;19.48;7.63;;;12.40;99.90;;;;;;5094305;28;20043;-48
2023/09/30 06:47:36;;;;;;;19.83;7.22;;;12.50;99.90;;;;;;5093984;28;20040;-50
2023/09/30 06:50:08;;;;;;;21.40;7.90;;;12.50;99.90;;;;;;5076267;28;20068;-46
2023/09/30 06:52:35;;;;;;;14.38;7.68;;;12.60;99.90;;;;;;5075715;28;20059;-48
2023/09/30 06:55:04;;;;;;;19.67;7.88;;;12.70;99.90;;;;;;5094348;28;20055;-48
2023/09/30 06:57:32;;;;;;;14.77;7.68;;;12.70;99.90;;;;;;5093821;28;20115;-50
2023/09/30 06:59:57;;;;;;;12.35;7.25;;;12.80;99.90;;;;;;5093765;28;20516;-48
2023/09/30 07:02:23;;;;;;;15.50;7.10;;;12.90;99.90;;;;;;5093891;28;20064;-47
2023/09/30 07:04:49;;;;;;;16.15;7.53;;;13.00;99.90;;;;;;5093718;28;20486;-49
2023/09/30 07:07:15;;;;;;;13.77;7.53;;;13.10;99.90;;;;;;5094318;28;20044;-48
2023/09/30 07:09:42;;;;;;;19.10;7.03;;;13.40;99.90;;;;;;5094077;28;20541;-48
2023/09/30 07:12:08;;;;;;;13.48;7.10;;;13.50;99.90;;;;;;5114652;28;20044;-48
2023/09/30 07:14:33;;;;;;;13.25;6.65;;;13.60;99.90;;;;;;5113992;28;20465;-49
2023/09/30 07:16:59;;;;;;;17.50;8.45;;;13.80;99.90;;;;;;5095681;28;20490;-46
2023/09/30 07:19:25;;;;;;;15.60;7.30;;;13.90;99.90;;;;;;5095705;28;20051;-48
2023/09/30 07:21:50;;;;;;;11.80;6.47;;;14.00;99.90;;;;;;5113661;28;20039;-48
2023/09/30 07:24:16;;;;;;;15.80;7.72;;;14.10;99.90;;;;;;5095357;28;20392;-47
2023/09/30 07:26:41;;;;;;;12.52;6.57;;;14.20;99.90;;;;;;5113934;28;20040;-48
2023/09/30 07:29:09;;;;;;;13.80;7.43;;;14.30;99.90;;;;;;5078335;28;20181;-48
2023/09/30 07:31:37;;;;;;;16.55;6.78;;;14.40;99.90;;;;;;5113807;28;20036;-48
2023/09/30 07:34:03;;;;;;;14.52;7.05;;;14.20;99.90;;;;;;5113438;28;20435;-51
2023/09/30 07:36:29;;;;;;;19.98;6.88;;;14.50;99.90;;;;;;5113497;28;20092;-49
2023/09/30 07:38:55;;;;;;;17.00;6.70;;;14.60;99.90;;;;;;5113237;28;20126;-49
2023/09/30 07:41:21;;;;;;;14.38;6.85;;;14.70;99.90;;;;;;5113308;28;20120;-49
2023/09/30 07:43:46;;;;;;;14.13;6.72;;;14.80;99.90;;;;;;5113552;28;20425;-49
2023/09/30 07:46:12;;;;;;;14.95;6.82;;;15.00;99.90;;;;;;5113318;28;20036;-49
2023/09/30 07:48:39;;;;;;;14.38;7.15;;;15.30;99.90;;;;;;5113406;28;20503;-50
2023/09/30 07:51:09;;;;;;;17.13;6.47;;;15.60;99.90;;;;;;5095342;28;20126;-49
2023/09/30 07:53:35;;;;;;;12.50;6.38;;;15.80;99.90;;;;;;5112992;28;20043;-51
2023/09/30 07:56:00;;;;;;;11.45;6.18;;;16.00;99.90;;;;;;5113339;28;20045;-50
2023/09/30 07:58:27;;;;;;;13.52;6.57;;;16.20;99.90;;;;;;5113043;28;20481;-51
2023/09/30 08:00:53;;;;;;;14.52;6.53;;;16.40;99.90;;;;;;5094896;28;20079;-48
2023/09/30 08:03:19;;;;;;;15.25;6.30;;;16.50;99.90;;;;;;5112967;28;20441;-51
2023/09/30 08:05:46;;;;;;;15.27;6.05;;;16.70;99.90;;;;;;5112833;28;20032;-52
2023/09/30 08:08:12;;;;;;;10.60;5.90;;;16.90;99.90;;;;;;5113165;28;20035;-48
2023/09/30 08:10:38;;;;;;;12.55;5.75;;;17.20;99.90;;;;;;5105037;28;20382;-52
2023/09/30 08:13:07;;;;;;;15.75;6.25;;;17.40;99.90;;;;;;5093131;28;20052;-51
2023/09/30 08:15:33;;;;;;;10.68;5.60;;;17.50;99.90;;;;;;5092259;28;20043;-48
2023/09/30 08:17:59;;;;;;;11.10;5.35;;;17.70;99.90;;;;;;5092392;28;20086;-49
2023/09/30 08:20:24;;;;;;;11.13;4.57;;;17.80;99.90;;;;;;5074563;28;20083;-49
2023/09/30 08:22:50;;;;;;;13.40;5.68;;;18.00;99.90;;;;;;5092752;28;20477;-50
2023/09/30 08:25:15;;;;;;;11.75;5.22;;;18.10;99.90;;;;;;5092150;28;20032;-49
2023/09/30 08:27:42;;;;;;;15.05;6.45;;;18.20;99.90;;;;;;5074289;28;20122;-52
2023/09/30 08:30:08;;;;;;;10.52;5.00;;;18.40;99.90;;;;;;5074043;28;20051;-52
2023/09/30 08:32:36;;;;;;;16.10;5.72;;;18.60;99.90;;;;;;5091967;28;20047;-48
2023/09/30 08:35:03;;;;;;;;;;;18.70;99.90;;;;;;5073970;28;20443;-47
2023/09/30 08:37:29;;;;;;;14.98;4.95;;;19.00;99.90;;;;;;5073676;28;19924;-48
2023/09/30 08:39:55;;;;;;;10.70;4.60;;;19.00;99.90;;;;;;5073873;28;20067;-50
2023/09/30 08:42:24;;;;;;;10.00;3.65;;;19.10;99.90;;;;;;5092050;28;20082;-51
2023/09/30 08:44:56;;;;;;;9.70;5.18;;;19.30;99.90;;;;;;5073847;28;20487;-48
2023/09/30 08:47:24;;;;;;;14.85;4.60;;;19.40;99.90;;;;;;5092200;28;20106;-48
2023/09/30 08:49:56;;;;;;;12.00;4.50;;;19.70;99.90;;;;;;5073996;28;20102;-51
2023/09/30 08:52:23;;;;;;;12.88;3.85;;;19.80;99.90;;;;;;5073634;28;20282;-47
2023/09/30 08:54:48;;;;;;;11.93;3.88;;;20.00;99.90;;;;;;5091896;28;20089;-53
2023/09/30 08:57:18;;;;;;;13.63;4.50;;;20.00;99.90;;;;;;5091692;28;20118;-49
2023/09/30 08:59:46;;;;;;;11.75;4.03;;;20.10;99.90;;;;;;5073453;28;20397;-51
2023/09/30 09:02:11;;;;;;;9.18;3.85;;;20.20;99.90;;;;;;5091957;28;20040;-50
2023/09/30 09:04:37;;;;;;;12.55;3.80;;;20.20;99.90;;;;;;5091207;28;20051;-48
2023/09/30 09:07:03;;;;;;;13.35;4.38;;;20.10;99.90;;;;;;5073813;28;20036;-51
2023/09/30 09:09:29;;;;;;;8.77;4.15;;;20.10;99.90;;;;;;5091467;28;20473;-51
2023/09/30 09:11:55;;;;;;;11.95;4.25;;;20.10;99.90;;;;;;5091502;28;20070;-48
2023/09/30 09:14:40;;;;;;;11.45;3.97;;;20.10;99.90;;;;;;5091462;28;20044;-51
2023/09/30 09:17:07;;;;;;;11.70;3.50;;;20.10;99.90;;;;;;5091926;28;20453;-51
2023/09/30 09:19:34;;;;;;;9.45;3.67;;;20.10;99.90;;;;;;5091517;28;20044;-48
2023/09/30 09:22:01;;;;;;;9.57;3.80;;;20.00;99.90;;;;;;5073752;28;20445;-51
2023/09/30 09:24:38;;;;;;;11.63;4.13;;;19.90;99.90;;;;;;5091640;28;20579;-47
2023/09/30 09:27:09;;;;;;;11.65;4.30;;;19.90;99.90;;;;;;5073334;28;20044;-47
2023/09/30 09:29:36;;;;;;;12.93;4.43;;;19.80;99.90;;;;;;5091537;28;20036;-54
2023/09/30 09:32:13;;;;;;;10.82;3.83;;;19.70;99.90;;;;;;5091366;28;20035;-50
2023/09/30 09:34:39;;;;;;;12.10;4.55;;;19.70;99.90;;;;;;5091263;28;20485;-49
2023/09/30 09:37:15;;;;;;;13.65;4.68;;;19.70;99.90;;;;;;5091173;28;20043;-50
2023/09/30 09:39:51;;;;;;;12.23;4.03;;;19.60;99.90;;;;;;5091370;28;20084;-47
2023/09/30 09:42:28;;;;;;;9.95;3.92;;;19.50;99.90;;;;;;5073494;28;20032;-49
2023/09/30 09:45:05;;;;;;;12.07;3.65;;;19.40;99.90;;;;;;5091372;28;20032;-51
2023/09/30 09:47:32;;;;;;;10.48;4.30;;;19.40;99.90;;;;;;5091194;28;20047;-47
2023/09/30 09:49:59;;;;;;;13.00;3.80;;;19.40;99.90;;;;;;5091498;28;20188;-49
2023/09/30 09:52:26;;;;;;;10.32;3.35;;;19.30;99.90;;;;;;5091478;28;20488;-51
2023/09/30 09:54:52;;;;;;;13.63;3.70;;;19.30;99.90;;;;;;5091059;28;20043;-48
2023/09/30 09:57:18;;;;;;;8.82;3.08;;;19.30;99.90;;;;;;5091121;28;20046;-51
2023/09/30 09:59:49;;;;;;;14.93;3.28;;;19.30;99.90;;;;;;5091096;28;20111;-47
2023/09/30 10:02:16;;;;;;;15.93;4.00;;;19.30;99.90;;;;;;5091408;28;20040;-51
2023/09/30 10:04:46;;;;;;;18.75;3.22;;;19.30;99.90;;;;;;5091470;28;20476;-49
2023/09/30 10:07:23;;;;;;;11.10;3.25;;;19.30;99.90;;;;;;5091244;28;20032;-53
2023/09/30 10:09:51;;;;;;;9.52;3.35;;;19.00;99.90;;;;;;5090925;28;20032;-50
2023/09/30 10:12:19;;;;;;;11.73;2.55;;;19.10;99.90;;;;;;5091114;28;20178;-50
2023/09/30 10:14:45;;;;;;;14.10;2.58;;;19.00;99.90;;;;;;5090951;28;20146;-49
2023/09/30 10:17:11;;;;;;;10.50;2.22;;;19.10;99.90;;;;;;5092574;28;20115;-47
2023/09/30 10:20:03;;;;;;;6.05;1.90;;;19.00;99.90;;;;;;5094702;28;20040;-51
2023/09/30 10:22:29;;;;;;;10.85;2.65;;;19.00;99.90;;;;;;5095081;28;20035;-51
2023/09/30 10:24:59;;;;;;;7.35;2.60;;;18.80;99.90;;;;;;5094438;28;20036;-50
2023/09/30 10:27:25;;;;;;;9.35;2.60;;;18.80;99.90;;;;;;5091558;28;20067;-49
2023/09/30 10:30:19;;;;;;;8.70;2.53;;;18.80;99.90;;;;;;5094390;28;20180;-49
2023/09/30 10:33:08;;;;;;;10.07;2.55;;;18.70;99.90;;;;;;5084325;28;20040;-46
2023/09/30 10:35:35;;;;;;;8.00;2.25;;;18.60;99.90;;;;;;4992202;28;20047;-51
2023/09/30 10:38:22;;;;;;;9.65;2.00;;;18.50;99.90;;;;;;4992524;28;20062;-46
2023/09/30 10:40:48;;;;;;;15.60;3.05;;;18.50;99.90;;;;;;4992457;28;20285;-46
2023/09/30 10:43:32;;;;;;;16.55;3.10;;;18.40;99.90;;;;;;4992469;28;20061;-47
2023/09/30 10:45:59;;;;;;;6.68;2.17;;;18.40;99.90;;;;;;4990267;28;20087;-51
2023/09/30 10:48:25;;;;;;;7.30;2.60;;;18.40;99.90;;;;;;4992449;28;20042;-48
2023/09/30 10:50:53;;;;;;;8.13;1.75;;;18.40;99.90;;;;;;4992014;28;20065;-47
2023/09/30 10:53:18;;;;;;;7.78;2.15;;;18.50;99.90;;;;;;4976114;28;20099;-47
2023/09/30 10:55:45;;;;;;;6.85;1.67;;;18.50;99.90;;;;;;4992166;28;20085;-47
2023/09/30 10:58:13;;;;;;;8.18;2.35;;;18.60;99.90;;;;;;4992177;28;20085;-47
2023/09/30 11:00:38;;;;;;;8.10;2.72;;;18.50;99.90;;;;;;4992045;28;20101;-47
2023/09/30 11:03:05;;;;;;;11.27;2.08;;;18.50;99.90;;;;;;4975703;28;20443;-49
2023/09/30 11:05:34;;;;;;;12.23;2.80;;;18.50;99.90;;;;;;4992080;28;20130;-49
2023/09/30 11:08:03;;;;;;;13.68;2.20;;;18.50;99.90;;;;;;4991831;28;20044;-47
2023/09/30 11:10:29;;;;;;;6.95;1.83;;;18.50;99.90;;;;;;4998207;28;20096;-49
2023/09/30 11:12:56;;;;;;;8.18;1.90;;;18.50;99.90;;;;;;5065153;28;20075;-46
2023/09/30 11:15:22;;;;;;;8.90;2.25;;;18.60;99.90;;;;;;5093557;28;20075;-49
2023/09/30 11:17:49;;;;;;;9.18;1.75;;;18.70;99.90;;;;;;5075245;28;20039;-47
2023/09/30 11:20:17;;;;;;;9.02;2.00;;;18.70;99.90;;;;;;5093506;28;20032;-47
2023/09/30 11:22:44;;;;;;;7.10;1.60;;;18.80;99.90;;;;;;5092229;28;20040;-45
2023/09/30 11:25:17;;;;;;;6.38;1.73;;;18.90;99.90;;;;;;5093310;28;20039;-46
2023/09/30 11:27:43;;;;;;;6.68;2.00;;;18.80;99.90;;;;;;5093036;28;20047;-48
2023/09/30 11:30:10;;;;;;;6.30;2.13;;;18.70;99.90;;;;;;5093537;28;20044;-48
2023/09/30 11:32:36;;;;;;;7.82;1.60;;;18.60;99.90;;;;;;5093422;28;20051;-45
2023/09/30 11:35:01;;;;;;;5.90;2.15;;;18.50;99.90;;;;;;5093398;28;20036;-50
2023/09/30 11:37:33;;;;;;;7.72;1.80;;;18.40;99.90;;;;;;5093287;28;20109;-51
2023/09/30 11:40:10;;;;;;;11.50;1.95;;;18.30;99.90;;;;;;5093159;28;20425;-50
2023/09/30 11:42:36;;;;;;;8.25;2.30;;;18.30;99.90;;;;;;5093037;28;20028;-48
2023/09/30 11:45:01;;;;;;;6.85;1.60;;;18.20;99.90;;;;;;5093108;28;20039;-47
2023/09/30 11:47:30;;;;;;;11.77;2.55;;;18.10;99.90;;;;;;5092957;28;20039;-51
2023/09/30 11:49:56;;;;;;;11.57;2.08;;;18.00;99.90;;;;;;5092986;28;20071;-49
2023/09/30 11:52:27;;;;;;;9.93;1.80;;;17.90;99.90;;;;;;5092810;28;20040;-50
2023/09/30 11:54:53;;;;;;;10.95;1.52;;;17.90;99.90;;;;;;5092977;28;20040;-52
2023/09/30 11:57:19;;;;;;;4.63;1.30;;;17.90;99.90;;;;;;5092924;28;20051;-45
2023/09/30 11:59:45;;;;;;;11.80;2.00;;;17.80;99.90;;;;;;5092645;28;20059;-48
2023/09/30 12:02:14;;;;;;;7.60;1.73;;;17.80;99.90;;;;;;5092693;28;20393;-49
2023/09/30 12:04:40;;;;;;;7.20;1.83;;;17.80;99.90;;;;;;5092732;28;20028;-47
2023/09/30 12:07:09;;;;;;;11.63;2.03;;;17.90;99.90;;;;;;5092796;28;20043;-51
2023/09/30 12:09:37;;;;;;;9.10;1.92;;;17.90;99.90;;;;;;5092839;28;20040;-50
2023/09/30 12:12:03;;;;;;;5.38;1.20;;;17.90;99.90;;;;;;5075678;28;20500;-48
2023/09/30 12:14:32;;;;;;;10.05;2.03;;;18.00;99.90;;;;;;5092539;28;20032;-46
2023/09/30 12:16:57;;;;;;;7.72;1.58;;;18.20;99.90;;;;;;5074176;28;20046;-48
2023/09/30 12:19:24;;;;;;;6.80;1.52;;;18.30;99.90;;;;;;5092270;28;20385;-48
2023/09/30 12:21:50;;;;;;;8.45;2.25;;;18.60;99.90;;;;;;5074162;28;20060;-48
2023/09/30 12:24:17;;;;;;;8.02;2.08;;;18.70;99.90;;;;;;5061243;28;20112;-47
2023/09/30 12:26:51;;;;;;;4.22;1.30;;;18.80;99.90;;;;;;5092208;28;20511;-47
2023/09/30 12:29:21;;;;;;;4.65;1.55;;;19.00;99.90;;;;;;5092356;28;20036;-46
2023/09/30 12:31:49;;;;;;;5.75;1.40;;;19.00;99.90;;;;;;5092140;28;20059;-47
2023/09/30 12:34:15;;;;;;;7.53;1.80;;;19.10;99.90;;;;;;5091908;28;20039;-48
2023/09/30 12:36:41;;;;;;;6.80;1.48;;;19.10;99.90;;;;;;5073771;28;20055;-45
2023/09/30 12:39:11;;;;;;;4.95;1.40;;;19.10;99.90;;;;;;5073361;28;20040;-48
2023/09/30 12:41:39;;;;;;;10.07;1.95;;;19.00;99.90;;;;;;5092166;28;20036;-50